createdAt,value
2018-11-12T00:00:15.733Z,101178.00
2018-11-12T00:02:47.128Z,101185.00
2018-11-12T00:05:16.430Z,101189.00
2018-11-12T00:07:45.339Z,101185.00
2018-11-12T00:10:14.733Z,101186.00
2018-11-12T00:12:43.567Z,101173.00
2018-11-12T00:15:12.810Z,101179.00
2018-11-12T00:17:41.654Z,101175.00
2018-11-12T00:20:12.143Z,101182.00
2018-11-12T00:22:40.964Z,101185.00
2018-11-12T00:25:09.769Z,101182.00
2018-11-12T00:27:39.101Z,101194.00
2018-11-12T00:30:11.932Z,101195.00
2018-11-12T00:32:40.852Z,101205.00
2018-11-12T00:35:10.635Z,101208.00
2018-11-12T00:37:40.006Z,101221.00
2018-11-12T00:40:11.986Z,101219.00
2018-11-12T00:42:41.069Z,101241.00
2018-11-12T00:45:10.503Z,101262.00
2018-11-12T00:47:39.322Z,101238.00
2018-11-12T00:50:10.601Z,101238.00
2018-11-12T00:52:40.018Z,101248.00
2018-11-12T00:55:11.059Z,101248.00
2018-11-12T00:57:40.358Z,101264.00
2018-11-12T01:00:13.153Z,101250.00
2018-11-12T01:02:44.466Z,101257.00
2018-11-12T01:05:13.616Z,101253.00
2018-11-12T01:07:42.964Z,101247.00
2018-11-12T01:10:13.805Z,101249.00
2018-11-12T01:12:43.218Z,101261.00
2018-11-12T01:15:18.154Z,101253.00
2018-11-12T01:17:46.971Z,101256.00
2018-11-12T01:20:16.758Z,101255.00
2018-11-12T01:22:45.550Z,101250.00
2018-11-12T01:25:15.193Z,101243.00
2018-11-12T01:27:44.502Z,101242.00
2018-11-12T01:30:14.564Z,101241.00
2018-11-12T01:32:43.723Z,101242.00
2018-11-12T01:35:13.584Z,101243.00
2018-11-12T01:37:42.408Z,101257.00
2018-11-12T01:40:12.353Z,101257.00
2018-11-12T01:42:41.476Z,101256.00
2018-11-12T01:45:13.977Z,101259.00
2018-11-12T01:47:43.979Z,101259.00
2018-11-12T01:50:13.735Z,101262.00
2018-11-12T01:52:43.291Z,101267.00
2018-11-12T01:55:13.311Z,101260.00
2018-11-12T01:57:42.412Z,101265.00
2018-11-12T02:00:17.016Z,101266.00
2018-11-12T02:02:46.960Z,101265.00
2018-11-12T02:05:16.142Z,101263.00
2018-11-12T02:07:44.983Z,101256.00
2018-11-12T02:10:15.050Z,101244.00
2018-11-12T02:12:43.871Z,101257.00
2018-11-12T02:15:17.138Z,101261.00
2018-11-12T02:17:46.733Z,101260.00
2018-11-12T02:20:16.758Z,101251.00
2018-11-12T02:22:46.579Z,101246.00
2018-11-12T02:25:15.974Z,101255.00
2018-11-12T02:27:51.515Z,101266.00
2018-11-12T02:30:25.755Z,101272.00
2018-11-12T02:32:54.684Z,101273.00
2018-11-12T02:35:23.542Z,101252.00
2018-11-12T02:37:52.378Z,101267.00
2018-11-12T02:40:21.379Z,101263.00
2018-11-12T02:42:50.181Z,101260.00
2018-11-12T02:45:19.073Z,101270.00
2018-11-12T02:47:47.905Z,101272.00
2018-11-12T02:50:17.783Z,101268.00
2018-11-12T02:52:47.043Z,101257.00
2018-11-12T02:55:16.389Z,101254.00
2018-11-12T02:57:45.994Z,101243.00
2018-11-12T03:00:17.686Z,101226.00
2018-11-12T03:02:46.525Z,101244.00
2018-11-12T03:05:15.381Z,101247.00
2018-11-12T03:07:44.416Z,101247.00
2018-11-12T03:10:20.822Z,101250.00
2018-11-12T03:12:49.628Z,101260.00
2018-11-12T03:15:19.121Z,101271.00
2018-11-12T03:17:48.586Z,101265.00
2018-11-12T03:20:18.736Z,101268.00
2018-11-12T03:22:47.579Z,101261.00
2018-11-12T03:25:17.622Z,101260.00
2018-11-12T03:27:47.028Z,101244.00
2018-11-12T03:30:17.042Z,101253.00
2018-11-12T03:32:46.651Z,101242.00
2018-11-12T03:35:15.755Z,101236.00
2018-11-12T03:37:45.564Z,101228.00
2018-11-12T03:40:17.400Z,101228.00
2018-11-12T03:42:46.724Z,101241.00
2018-11-12T03:45:16.829Z,101242.00
2018-11-12T03:47:45.675Z,101239.00
2018-11-12T03:50:15.766Z,101240.00
2018-11-12T03:52:45.117Z,101243.00
2018-11-12T03:55:15.108Z,101236.00
2018-11-12T03:57:43.974Z,101256.00
2018-11-12T04:00:16.344Z,101244.00
2018-11-12T04:02:45.175Z,101251.00
2018-11-12T04:05:13.975Z,101243.00
2018-11-12T04:07:42.907Z,101255.00
2018-11-12T04:10:15.774Z,101265.00
2018-11-12T04:12:44.678Z,101264.00
2018-11-12T04:15:17.123Z,101261.00
2018-11-12T04:17:46.064Z,101258.00
2018-11-12T04:20:16.184Z,101271.00
2018-11-12T04:22:51.959Z,101268.00
2018-11-12T04:25:21.075Z,101264.00
2018-11-12T04:27:49.897Z,101256.00
2018-11-12T04:30:18.785Z,101254.00
2018-11-12T04:32:47.766Z,101265.00
2018-11-12T04:35:16.576Z,101268.00
2018-11-12T04:37:45.569Z,101280.00
2018-11-12T04:40:21.162Z,101278.00
2018-11-12T04:42:50.217Z,101266.00
2018-11-12T04:45:20.262Z,101266.00
2018-11-12T04:47:49.714Z,101262.00
2018-11-12T04:50:20.087Z,101262.00
2018-11-12T04:52:49.464Z,101275.00
2018-11-12T04:55:19.608Z,101283.00
2018-11-12T04:57:48.768Z,101284.00
2018-11-12T05:00:25.862Z,101286.00
2018-11-12T05:02:54.694Z,101269.00
2018-11-12T05:05:24.766Z,101275.00
2018-11-12T05:07:53.710Z,101275.00
2018-11-12T05:10:23.500Z,101269.00
2018-11-12T05:12:52.879Z,101269.00
2018-11-12T05:15:22.489Z,101268.00
2018-11-12T05:17:51.595Z,101276.00
2018-11-12T05:20:22.755Z,101262.00
2018-11-12T05:22:51.617Z,101259.00
2018-11-12T05:25:20.489Z,101258.00
2018-11-12T05:27:49.300Z,101271.00
2018-11-12T05:30:19.958Z,101268.00
2018-11-12T05:32:48.808Z,101262.00
2018-11-12T05:35:18.825Z,101251.00
2018-11-12T05:37:47.651Z,101256.00
2018-11-12T05:40:19.376Z,101276.00
2018-11-12T05:42:48.246Z,101279.00
2018-11-12T05:45:19.105Z,101290.00
2018-11-12T05:47:47.967Z,101297.00
2018-11-12T05:50:19.151Z,101295.00
2018-11-12T05:52:49.362Z,101296.00
2018-11-12T05:55:20.312Z,101307.00
2018-11-12T05:57:49.154Z,101309.00
2018-11-12T06:00:23.724Z,101322.00
2018-11-12T06:02:52.559Z,101321.00
2018-11-12T06:05:21.374Z,101308.00
2018-11-12T06:07:50.187Z,101320.00
2018-11-12T06:10:21.119Z,101321.00
2018-11-12T06:12:50.150Z,101325.00
2018-11-12T06:15:19.065Z,101316.00
2018-11-12T06:17:48.617Z,101325.00
2018-11-12T06:20:20.424Z,101324.00
2018-11-12T06:22:49.326Z,101331.00
2018-11-12T06:25:19.392Z,101339.00
2018-11-12T06:27:48.387Z,101335.00
2018-11-12T06:30:18.406Z,101325.00
2018-11-12T06:32:47.222Z,101328.00
2018-11-12T06:35:16.604Z,101325.00
2018-11-12T06:37:46.199Z,101337.00
2018-11-12T06:40:16.178Z,101338.00
2018-11-12T06:42:45.297Z,101336.00
2018-11-12T06:45:16.763Z,101328.00
2018-11-12T06:47:46.470Z,101335.00
2018-11-12T06:50:16.691Z,101337.00
2018-11-12T06:52:45.600Z,101336.00
2018-11-12T06:55:15.301Z,101335.00
2018-11-12T06:57:44.797Z,101337.00
2018-11-12T07:00:18.368Z,101334.00
2018-11-12T07:02:47.242Z,101339.00
2018-11-12T07:05:16.325Z,101332.00
2018-11-12T07:07:45.220Z,101342.00
2018-11-12T07:10:15.086Z,101335.00
2018-11-12T07:12:44.713Z,101329.00
2018-11-12T07:15:14.928Z,101324.00
2018-11-12T07:17:43.770Z,101335.00
2018-11-12T07:20:16.929Z,101331.00
2018-11-12T07:22:45.872Z,101331.00
2018-11-12T07:25:15.506Z,101325.00
2018-11-12T07:27:44.265Z,101312.00
2018-11-12T07:30:17.088Z,101313.00
2018-11-12T07:32:46.554Z,101330.00
2018-11-12T07:35:15.982Z,101343.00
2018-11-12T07:37:45.953Z,101338.00
2018-11-12T07:40:15.501Z,101361.00
2018-11-12T07:42:44.382Z,101360.00
2018-11-12T07:45:15.533Z,101364.00
2018-11-12T07:47:45.244Z,101358.00
2018-11-12T07:50:15.158Z,101349.00
2018-11-12T07:52:44.270Z,101355.00
2018-11-12T07:55:15.210Z,101376.00
2018-11-12T07:57:44.921Z,101379.00
2018-11-12T08:00:17.855Z,101376.00
2018-11-12T08:02:47.390Z,101371.00
2018-11-12T08:05:16.603Z,101366.00
2018-11-12T08:07:45.710Z,101373.00
2018-11-12T08:10:18.682Z,101385.00
2018-11-12T08:12:47.890Z,101386.00
2018-11-12T08:15:18.108Z,101394.00
2018-11-12T08:17:46.977Z,101392.00
2018-11-12T08:20:17.221Z,101391.00
2018-11-12T08:22:47.229Z,101398.00
2018-11-12T08:25:16.041Z,101400.00
2018-11-12T08:27:45.265Z,101389.00
2018-11-12T08:30:17.498Z,101387.00
2018-11-12T08:32:47.423Z,101381.00
2018-11-12T08:35:16.619Z,101366.00
2018-11-12T08:37:45.995Z,101375.00
2018-11-12T08:40:17.196Z,101381.00
2018-11-12T08:42:46.023Z,101378.00
2018-11-12T08:45:15.126Z,101377.00
2018-11-12T08:47:45.462Z,101379.00
2018-11-12T08:50:16.540Z,101388.00
2018-11-12T08:52:46.438Z,101388.00
2018-11-12T08:55:16.670Z,101383.00
2018-11-12T08:57:47.262Z,101383.00
2018-11-12T09:00:16.886Z,101388.00
2018-11-12T09:02:45.749Z,101398.00
2018-11-12T09:05:15.614Z,101400.00
2018-11-12T09:07:46.015Z,101394.00
2018-11-12T09:10:17.021Z,101395.00
2018-11-12T09:12:46.137Z,101379.00
2018-11-12T09:15:15.366Z,101379.00
2018-11-12T09:17:45.686Z,101380.00
2018-11-12T09:20:16.005Z,101378.00
2018-11-12T09:22:44.940Z,101385.00
2018-11-12T09:25:15.380Z,101394.00
2018-11-12T09:27:44.280Z,101398.00
2018-11-12T09:30:18.266Z,101407.00
2018-11-12T09:32:47.402Z,101408.00
2018-11-12T09:35:31.722Z,101410.00
2018-11-12T09:38:02.074Z,101399.00
2018-11-12T09:40:34.779Z,101405.00
2018-11-12T09:43:03.715Z,101397.00
2018-11-12T09:45:32.546Z,101398.00
2018-11-12T09:48:01.470Z,101405.00
2018-11-12T09:50:30.541Z,101400.00
2018-11-12T09:53:00.341Z,101406.00
2018-11-12T09:55:30.902Z,101392.00
2018-11-12T09:58:01.169Z,101388.00
2018-11-12T10:00:30.774Z,101397.00
2018-11-12T10:03:00.405Z,101386.00
2018-11-12T10:05:29.575Z,101384.00
2018-11-12T10:08:02.167Z,101387.00
2018-11-12T10:10:39.496Z,101381.00
2018-11-12T10:13:10.811Z,101373.00
2018-11-12T10:15:40.484Z,101364.00
2018-11-12T10:18:09.210Z,101346.00
2018-11-12T10:20:35.391Z,101341.00
2018-11-12T10:23:04.209Z,101340.00
2018-11-12T10:25:33.024Z,101339.00
2018-11-12T10:28:01.959Z,101338.00
2018-11-12T10:30:30.773Z,101347.00
2018-11-12T10:32:59.831Z,101359.00
2018-11-12T10:35:28.687Z,101345.00
2018-11-12T10:37:57.491Z,101348.00
2018-11-12T10:40:26.679Z,101341.00
2018-11-12T10:42:55.475Z,101335.00
2018-11-12T10:45:24.290Z,101339.00
2018-11-12T10:47:53.851Z,101335.00
2018-11-12T10:50:23.058Z,101340.00
2018-11-12T10:52:52.082Z,101337.00
2018-11-12T10:55:22.449Z,101335.00
2018-11-12T10:57:51.584Z,101334.00
2018-11-12T11:00:44.964Z,101332.00
2018-11-12T11:03:18.483Z,101327.00
2018-11-12T11:05:49.009Z,101328.00
2018-11-12T11:08:17.879Z,101331.00
2018-11-12T11:10:46.644Z,101340.00
2018-11-12T11:13:15.776Z,101340.00
2018-11-12T11:15:44.669Z,101325.00
2018-11-12T11:18:13.471Z,101316.00
2018-11-12T11:20:42.315Z,101306.00
2018-11-12T11:23:11.102Z,101312.00
2018-11-12T11:25:39.913Z,101314.00
2018-11-12T11:28:08.725Z,101311.00
2018-11-12T11:30:37.542Z,101317.00
2018-11-12T11:33:06.406Z,101318.00
2018-11-12T11:35:35.471Z,101308.00
2018-11-12T11:38:04.303Z,101306.00
2018-11-12T11:40:33.188Z,101317.00
2018-11-12T11:43:01.988Z,101308.00
2018-11-12T11:45:30.878Z,101310.00
2018-11-12T11:47:59.816Z,101311.00
2018-11-12T11:50:28.817Z,101301.00
2018-11-12T11:52:57.499Z,101309.00
2018-11-12T11:55:26.305Z,101298.00
2018-11-12T11:57:55.370Z,101294.00
2018-11-12T12:00:25.536Z,101294.00
2018-11-12T12:02:55.350Z,101286.00
2018-11-12T12:05:25.267Z,101283.00
2018-11-12T12:07:54.925Z,101286.00
2018-11-12T12:10:23.734Z,101286.00
2018-11-12T12:12:53.139Z,101288.00
2018-11-12T12:15:22.738Z,101288.00
2018-11-12T12:17:51.595Z,101292.00
2018-11-12T12:20:23.904Z,101287.00
2018-11-12T12:22:52.998Z,101292.00
2018-11-12T12:25:21.809Z,101296.00
2018-11-12T12:27:50.979Z,101301.00
2018-11-12T12:30:23.157Z,101296.00
2018-11-12T12:32:52.893Z,101282.00
2018-11-12T12:35:21.730Z,101277.00
2018-11-12T12:37:50.637Z,101286.00
2018-11-12T12:40:20.795Z,101271.00
2018-11-12T12:42:49.609Z,101275.00
2018-11-12T12:45:19.886Z,101269.00
2018-11-12T12:47:49.087Z,101267.00
2018-11-12T12:50:18.628Z,101276.00
2018-11-12T12:52:47.479Z,101276.00
2018-11-12T12:55:16.964Z,101270.00
2018-11-12T12:57:46.171Z,101272.00
2018-11-12T13:00:18.662Z,101258.00
2018-11-12T13:02:47.646Z,101259.00
2018-11-12T13:05:16.514Z,101254.00
2018-11-12T13:07:46.015Z,101258.00
2018-11-12T13:10:17.195Z,101258.00
2018-11-12T13:12:46.069Z,101256.00
2018-11-12T13:15:16.188Z,101257.00
2018-11-12T13:17:45.790Z,101264.00
2018-11-12T13:20:15.938Z,101260.00
2018-11-12T13:22:45.730Z,101251.00
2018-11-12T13:25:14.598Z,101253.00
2018-11-12T13:27:43.961Z,101263.00
2018-11-12T13:30:14.889Z,101249.00
2018-11-12T13:32:44.371Z,101253.00
2018-11-12T13:35:14.527Z,101246.00
2018-11-12T13:37:43.950Z,101241.00
2018-11-12T13:40:15.618Z,101247.00
2018-11-12T13:42:46.392Z,101257.00
2018-11-12T13:45:15.262Z,101254.00
2018-11-12T13:47:44.144Z,101262.00
2018-11-12T13:50:14.749Z,101252.00
2018-11-12T13:52:43.799Z,101251.00
2018-11-12T13:55:13.817Z,101247.00
2018-11-12T13:57:42.784Z,101246.00
2018-11-12T14:00:16.328Z,101241.00
2018-11-12T14:02:46.164Z,101244.00
2018-11-12T14:05:16.663Z,101260.00
2018-11-12T14:07:46.433Z,101253.00
2018-11-12T14:10:16.563Z,101248.00
2018-11-12T14:12:45.779Z,101244.00
2018-11-12T14:15:19.790Z,101256.00
2018-11-12T14:17:49.296Z,101250.00
2018-11-12T14:20:18.375Z,101252.00
2018-11-12T14:22:47.254Z,101256.00
2018-11-12T14:25:17.108Z,101256.00
2018-11-12T14:27:47.122Z,101266.00
2018-11-12T14:30:17.389Z,101263.00
2018-11-12T14:32:46.201Z,101269.00
2018-11-12T14:35:15.433Z,101265.00
2018-11-12T14:37:45.354Z,101253.00
2018-11-12T14:40:15.256Z,101256.00
2018-11-12T14:42:44.247Z,101259.00
2018-11-12T14:45:16.862Z,101252.00
2018-11-12T14:47:46.149Z,101232.00
2018-11-12T14:50:14.998Z,101233.00
2018-11-12T14:52:43.862Z,101243.00
2018-11-12T14:55:13.924Z,101250.00
2018-11-12T14:57:42.668Z,101248.00
2018-11-12T15:00:19.458Z,101251.00
2018-11-12T15:02:48.338Z,101238.00
2018-11-12T15:05:18.299Z,101251.00
2018-11-12T15:07:47.632Z,101243.00
2018-11-12T15:10:16.432Z,101249.00
2018-11-12T15:12:45.887Z,101255.00
2018-11-12T15:15:14.907Z,101252.00
2018-11-12T15:17:43.980Z,101250.00
2018-11-12T15:20:15.229Z,101263.00
2018-11-12T15:22:44.436Z,101257.00
2018-11-12T15:25:15.925Z,101259.00
2018-11-12T15:27:45.175Z,101270.00
2018-11-12T15:30:16.403Z,101263.00
2018-11-12T15:32:46.160Z,101258.00
2018-11-12T15:35:15.138Z,101265.00
2018-11-12T15:37:44.706Z,101259.00
2018-11-12T15:40:14.157Z,101250.00
2018-11-12T15:42:43.109Z,101268.00
2018-11-12T15:45:16.936Z,101266.00
2018-11-12T15:47:46.541Z,101268.00
2018-11-12T15:50:24.991Z,101267.00
2018-11-12T15:52:53.797Z,101264.00
2018-11-12T15:55:22.639Z,101277.00
2018-11-12T15:57:52.021Z,101275.00
2018-11-12T16:00:20.857Z,101279.00
2018-11-12T16:02:49.666Z,101266.00
2018-11-12T16:05:18.519Z,101268.00
2018-11-12T16:07:47.943Z,101264.00
2018-11-12T16:10:18.813Z,101276.00
2018-11-12T16:12:47.961Z,101270.00
2018-11-12T16:15:18.075Z,101267.00
2018-11-12T16:17:46.875Z,101274.00
2018-11-12T16:20:21.036Z,101278.00
2018-11-12T16:22:50.373Z,101266.00
2018-11-12T16:25:19.795Z,101264.00
2018-11-12T16:27:48.622Z,101264.00
2018-11-12T16:30:17.443Z,101274.00
2018-11-12T16:32:46.804Z,101269.00
2018-11-12T16:35:17.694Z,101275.00
2018-11-12T16:37:47.311Z,101275.00
2018-11-12T16:40:16.209Z,101277.00
2018-11-12T16:42:46.179Z,101276.00
2018-11-12T16:45:15.411Z,101280.00
2018-11-12T16:47:44.400Z,101276.00
2018-11-12T16:50:14.122Z,101278.00
2018-11-12T16:52:42.941Z,101266.00
2018-11-12T16:55:14.618Z,101273.00
2018-11-12T16:57:43.506Z,101281.00
2018-11-12T17:00:14.069Z,101277.00
2018-11-12T17:02:43.281Z,101278.00
2018-11-12T17:05:13.712Z,101283.00
2018-11-12T17:07:42.523Z,101276.00
2018-11-12T17:10:14.236Z,101287.00
2018-11-12T17:12:43.825Z,101278.00
2018-11-12T17:15:13.267Z,101283.00
2018-11-12T17:17:42.179Z,101283.00
2018-11-12T17:20:12.894Z,101280.00
2018-11-12T17:22:41.753Z,101284.00
2018-11-12T17:25:12.252Z,101291.00
2018-11-12T17:27:41.448Z,101287.00
2018-11-12T17:30:13.127Z,101290.00
2018-11-12T17:32:42.357Z,101288.00
2018-11-12T17:35:13.099Z,101292.00
2018-11-12T17:37:41.923Z,101293.00
2018-11-12T17:40:17.346Z,101285.00
2018-11-12T17:42:47.449Z,101294.00
2018-11-12T17:45:17.561Z,101289.00
2018-11-12T17:47:47.414Z,101291.00
2018-11-12T17:50:16.260Z,101282.00
2018-11-12T17:52:45.146Z,101279.00
2018-11-12T17:55:14.028Z,101289.00
2018-11-12T17:57:42.872Z,101279.00
2018-11-12T18:00:14.415Z,101280.00
2018-11-12T18:02:43.601Z,101286.00
2018-11-12T18:05:12.420Z,101283.00
2018-11-12T18:07:42.063Z,101289.00
2018-11-12T18:10:18.556Z,101288.00
2018-11-12T18:12:47.420Z,101295.00
2018-11-12T18:15:17.572Z,101284.00
2018-11-12T18:17:46.882Z,101297.00
2018-11-12T18:20:20.042Z,101295.00
2018-11-12T18:22:49.481Z,101306.00
2018-11-12T18:25:18.321Z,101310.00
2018-11-12T18:27:47.147Z,101304.00
2018-11-12T18:30:19.772Z,101324.00
2018-11-12T18:32:49.622Z,101320.00
2018-11-12T18:35:18.482Z,101320.00
2018-11-12T18:37:47.595Z,101316.00
2018-11-12T18:40:17.853Z,101317.00
2018-11-12T18:42:47.311Z,101308.00
2018-11-12T18:45:17.485Z,101306.00
2018-11-12T18:47:46.332Z,101300.00
2018-11-12T18:50:18.084Z,101296.00
2018-11-12T18:52:47.320Z,101297.00
2018-11-12T18:55:16.174Z,101292.00
2018-11-12T18:57:45.964Z,101302.00
2018-11-12T19:00:16.454Z,101306.00
2018-11-12T19:02:45.531Z,101306.00
2018-11-12T19:05:17.583Z,101308.00
2018-11-12T19:07:50.519Z,101307.00
2018-11-12T19:10:27.610Z,101314.00
2018-11-12T19:12:56.478Z,101323.00
2018-11-12T19:15:26.714Z,101321.00
2018-11-12T19:18:00.134Z,101330.00
2018-11-12T19:20:29.065Z,101336.00
2018-11-12T19:22:57.883Z,101342.00
2018-11-12T19:25:26.818Z,101332.00
2018-11-12T19:27:55.627Z,101337.00
2018-11-12T19:30:25.878Z,101344.00
2018-11-12T19:32:54.689Z,101349.00
2018-11-12T19:35:26.014Z,101347.00
2018-11-12T19:37:54.846Z,101342.00
2018-11-12T19:40:25.409Z,101345.00
2018-11-12T19:42:54.825Z,101342.00
2018-11-12T19:45:23.698Z,101348.00
2018-11-12T19:47:52.927Z,101335.00
2018-11-12T19:50:23.035Z,101340.00
2018-11-12T19:52:53.062Z,101337.00
2018-11-12T19:55:21.919Z,101347.00
2018-11-12T19:57:50.767Z,101343.00
2018-11-12T20:00:21.073Z,101345.00
2018-11-12T20:02:51.283Z,101339.00
2018-11-12T20:05:20.166Z,101337.00
2018-11-12T20:07:48.973Z,101340.00
2018-11-12T20:10:19.922Z,101339.00
2018-11-12T20:12:48.991Z,101343.00
2018-11-12T20:15:19.234Z,101347.00
2018-11-12T20:17:48.850Z,101349.00
2018-11-12T20:20:33.826Z,101344.00
2018-11-12T20:23:03.021Z,101348.00
2018-11-12T20:25:31.866Z,101351.00
2018-11-12T20:28:00.704Z,101349.00
2018-11-12T20:30:33.781Z,101362.00
2018-11-12T20:33:02.631Z,101366.00
2018-11-12T20:35:31.462Z,101352.00
2018-11-12T20:38:00.298Z,101349.00
2018-11-12T20:40:29.148Z,101362.00
2018-11-12T20:42:57.958Z,101360.00
2018-11-12T20:45:27.321Z,101357.00
2018-11-12T20:47:57.046Z,101371.00
2018-11-12T20:50:25.839Z,101366.00
2018-11-12T20:52:54.676Z,101373.00
2018-11-12T20:55:23.590Z,101368.00
2018-11-12T20:57:52.344Z,101373.00
2018-11-12T21:00:23.351Z,101377.00
2018-11-12T21:02:52.957Z,101378.00
2018-11-12T21:05:28.284Z,101364.00
2018-11-12T21:07:57.082Z,101374.00
2018-11-12T21:10:25.908Z,101374.00
2018-11-12T21:12:55.240Z,101370.00
2018-11-12T21:15:24.873Z,101372.00
2018-11-12T21:17:53.712Z,101352.00
2018-11-12T21:20:23.694Z,101347.00
2018-11-12T21:22:52.651Z,101345.00
2018-11-12T21:25:23.626Z,101355.00
2018-11-12T21:27:52.678Z,101348.00
2018-11-12T21:30:22.972Z,101346.00
2018-11-12T21:32:51.810Z,101348.00
2018-11-12T21:35:20.661Z,101365.00
2018-11-12T21:37:50.730Z,101360.00
2018-11-12T21:40:21.175Z,101366.00
2018-11-12T21:42:50.098Z,101369.00
2018-11-12T21:45:20.576Z,101371.00
2018-11-12T21:47:49.775Z,101380.00
2018-11-12T21:50:19.800Z,101376.00
2018-11-12T21:52:48.611Z,101382.00
2018-11-12T21:55:17.467Z,101381.00
2018-11-12T21:57:46.402Z,101390.00
2018-11-12T22:00:23.716Z,101396.00
2018-11-12T22:02:54.882Z,101387.00
2018-11-12T22:05:23.926Z,101371.00
2018-11-12T22:07:53.092Z,101383.00
2018-11-12T22:10:21.939Z,101380.00
2018-11-12T22:12:51.592Z,101376.00
2018-11-12T22:15:20.920Z,101363.00
2018-11-12T22:17:49.750Z,101382.00
2018-11-12T22:20:19.817Z,101386.00
2018-11-12T22:22:48.650Z,101383.00
2018-11-12T22:25:18.578Z,101376.00
2018-11-12T22:27:48.114Z,101382.00
2018-11-12T22:30:19.064Z,101367.00
2018-11-12T22:32:49.160Z,101364.00
2018-11-12T22:35:17.992Z,101364.00
2018-11-12T22:37:47.230Z,101369.00
2018-11-12T22:40:16.961Z,101365.00
2018-11-12T22:42:46.671Z,101365.00
2018-11-12T22:45:24.262Z,101365.00
2018-11-12T22:47:53.341Z,101365.00
2018-11-12T22:50:22.195Z,101373.00
2018-11-12T22:52:51.161Z,101384.00
2018-11-12T22:55:20.449Z,101371.00
2018-11-12T22:57:49.253Z,101372.00
2018-11-12T23:00:25.571Z,101383.00
2018-11-12T23:02:54.693Z,101395.00
2018-11-12T23:05:23.952Z,101393.00
2018-11-12T23:07:53.494Z,101386.00
2018-11-12T23:10:22.598Z,101395.00
2018-11-12T23:12:51.499Z,101405.00
2018-11-12T23:15:21.097Z,101403.00
2018-11-12T23:17:49.923Z,101412.00
2018-11-12T23:20:20.064Z,101396.00
2018-11-12T23:22:49.725Z,101401.00
2018-11-12T23:25:18.689Z,101403.00
2018-11-12T23:27:48.093Z,101392.00
2018-11-12T23:30:18.139Z,101400.00
2018-11-12T23:32:46.956Z,101413.00
2018-11-12T23:35:17.172Z,101405.00
2018-11-12T23:37:46.650Z,101411.00
2018-11-12T23:40:15.840Z,101408.00
2018-11-12T23:42:45.563Z,101415.00
2018-11-12T23:45:14.559Z,101415.00
2018-11-12T23:47:43.369Z,101398.00
2018-11-12T23:50:16.137Z,101409.00
2018-11-12T23:52:45.614Z,101411.00
2018-11-12T23:55:14.650Z,101420.00
2018-11-12T23:57:43.822Z,101436.00
